sensor_id;sensor_type;location;lat;lon;timestamp;temperature;humidity
9790;DHT22;4934;50.852;8.098;2022-09-09T00:00:18;11.60;99.90
9790;DHT22;4934;50.852;8.098;2022-09-09T00:02:54;11.50;99.90
9790;DHT22;4934;50.852;8.098;2022-09-09T00:05:35;11.50;99.90
9790;DHT22;4934;50.852;8.098;2022-09-09T00:08:04;11.50;99.90
9790;DHT22;4934;50.852;8.098;2022-09-09T00:10:37;11.50;99.90
9790;DHT22;4934;50.852;8.098;2022-09-09T00:13:25;11.50;99.90
9790;DHT22;4934;50.852;8.098;2022-09-09T00:19:00;11.40;99.90
9790;DHT22;4934;50.852;8.098;2022-09-09T00:21:38;11.40;99.90
9790;DHT22;4934;50.852;8.098;2022-09-09T00:24:34;11.40;99.90
9790;DHT22;4934;50.852;8.098;2022-09-09T00:27:14;11.40;99.90
9790;DHT22;4934;50.852;8.098;2022-09-09T00:29:43;11.40;99.90
9790;DHT22;4934;50.852;8.098;2022-09-09T00:32:17;11.50;99.90
9790;DHT22;4934;50.852;8.098;2022-09-09T00:37:36;11.50;99.90
9790;DHT22;4934;50.852;8.098;2022-09-09T00:40:08;11.60;99.90
9790;DHT22;4934;50.852;8.098;2022-09-09T00:42:43;11.60;99.90
9790;DHT22;4934;50.852;8.098;2022-09-09T00:47:53;11.70;99.90
9790;DHT22;4934;50.852;8.098;2022-09-09T00:56:50;11.90;99.90
9790;DHT22;4934;50.852;8.098;2022-09-09T00:58:52;11.80;99.90
9790;DHT22;4934;50.852;8.098;2022-09-09T01:01:23;11.80;99.90
9790;DHT22;4934;50.852;8.098;2022-09-09T01:03:56;11.80;99.90
9790;DHT22;4934;50.852;8.098;2022-09-09T01:06:33;11.90;99.90
9790;DHT22;4934;50.852;8.098;2022-09-09T01:09:16;11.80;99.90
9790;DHT22;4934;50.852;8.098;2022-09-09T01:12:05;11.70;99.90
9790;DHT22;4934;50.852;8.098;2022-09-09T01:17:10;11.50;99.90
9790;DHT22;4934;50.852;8.098;2022-09-09T01:27:33;11.40;99.90
9790;DHT22;4934;50.852;8.098;2022-09-09T01:29:59;11.40;99.90
9790;DHT22;4934;50.852;8.098;2022-09-09T01:32:40;11.40;99.90
9790;DHT22;4934;50.852;8.098;2022-09-09T01:35:42;11.40;99.90
9790;DHT22;4934;50.852;8.098;2022-09-09T01:38:09;11.30;99.90
9790;DHT22;4934;50.852;8.098;2022-09-09T01:40:35;11.30;99.90
9790;DHT22;4934;50.852;8.098;2022-09-09T01:43:02;11.50;99.90
9790;DHT22;4934;50.852;8.098;2022-09-09T01:45:29;11.50;99.90
9790;DHT22;4934;50.852;8.098;2022-09-09T01:47:55;11.50;99.90
9790;DHT22;4934;50.852;8.098;2022-09-09T01:50:22;11.40;99.90
9790;DHT22;4934;50.852;8.098;2022-09-09T01:52:50;11.40;99.90
9790;DHT22;4934;50.852;8.098;2022-09-09T01:55:19;11.30;99.90
9790;DHT22;4934;50.852;8.098;2022-09-09T02:00:45;11.30;99.90
9790;DHT22;4934;50.852;8.098;2022-09-09T02:03:25;11.30;99.90
9790;DHT22;4934;50.852;8.098;2022-09-09T02:08:50;11.40;99.90
9790;DHT22;4934;50.852;8.098;2022-09-09T02:11:24;11.40;99.90
9790;DHT22;4934;50.852;8.098;2022-09-09T02:13:54;11.40;99.90
9790;DHT22;4934;50.852;8.098;2022-09-09T02:18:53;11.40;99.90
9790;DHT22;4934;50.852;8.098;2022-09-09T02:21:21;11.30;99.90
9790;DHT22;4934;50.852;8.098;2022-09-09T02:23:49;11.30;99.90
9790;DHT22;4934;50.852;8.098;2022-09-09T02:26:18;11.20;99.90
9790;DHT22;4934;50.852;8.098;2022-09-09T02:28:49;11.20;99.90
9790;DHT22;4934;50.852;8.098;2022-09-09T02:31:18;11.20;99.90
9790;DHT22;4934;50.852;8.098;2022-09-09T02:33:45;11.30;99.90
9790;DHT22;4934;50.852;8.098;2022-09-09T02:36:15;11.40;99.90
9790;DHT22;4934;50.852;8.098;2022-09-09T02:38:46;11.60;99.90
9790;DHT22;4934;50.852;8.098;2022-09-09T02:41:26;11.60;99.90
9790;DHT22;4934;50.852;8.098;2022-09-09T02:43:54;11.60;99.90
9790;DHT22;4934;50.852;8.098;2022-09-09T02:52:08;11.70;99.90
9790;DHT22;4934;50.852;8.098;2022-09-09T02:54:38;11.60;99.90
9790;DHT22;4934;50.852;8.098;2022-09-09T02:57:25;11.60;99.90
9790;DHT22;4934;50.852;8.098;2022-09-09T02:59:53;11.60;99.90
9790;DHT22;4934;50.852;8.098;2022-09-09T03:02:22;11.60;99.90
9790;DHT22;4934;50.852;8.098;2022-09-09T03:04:47;11.70;99.90
9790;DHT22;4934;50.852;8.098;2022-09-09T03:07:17;11.80;99.90
9790;DHT22;4934;50.852;8.098;2022-09-09T03:09:44;11.90;99.90
9790;DHT22;4934;50.852;8.098;2022-09-09T03:12:10;12.00;99.90
9790;DHT22;4934;50.852;8.098;2022-09-09T03:14:37;11.90;99.90
9790;DHT22;4934;50.852;8.098;2022-09-09T03:17:04;11.90;99.90
9790;DHT22;4934;50.852;8.098;2022-09-09T03:19:30;11.90;99.90
9790;DHT22;4934;50.852;8.098;2022-09-09T03:22:00;12.00;99.90
9790;DHT22;4934;50.852;8.098;2022-09-09T03:24:25;12.00;99.90
9790;DHT22;4934;50.852;8.098;2022-09-09T03:26:51;12.20;99.90
9790;DHT22;4934;50.852;8.098;2022-09-09T03:29:19;12.20;99.90
9790;DHT22;4934;50.852;8.098;2022-09-09T03:31:44;12.20;99.90
9790;DHT22;4934;50.852;8.098;2022-09-09T03:34:10;12.20;99.90
9790;DHT22;4934;50.852;8.098;2022-09-09T03:36:40;12.30;99.90
9790;DHT22;4934;50.852;8.098;2022-09-09T03:39:06;12.30;99.90
9790;DHT22;4934;50.852;8.098;2022-09-09T03:41:34;12.40;99.90
9790;DHT22;4934;50.852;8.098;2022-09-09T03:43:59;12.40;99.90
9790;DHT22;4934;50.852;8.098;2022-09-09T03:46:25;12.50;99.90
9790;DHT22;4934;50.852;8.098;2022-09-09T03:48:51;12.60;99.90
9790;DHT22;4934;50.852;8.098;2022-09-09T03:51:20;12.60;99.90
9790;DHT22;4934;50.852;8.098;2022-09-09T03:53:46;12.70;99.90
9790;DHT22;4934;50.852;8.098;2022-09-09T03:56:13;12.80;99.90
9790;DHT22;4934;50.852;8.098;2022-09-09T03:58:38;12.90;99.90
9790;DHT22;4934;50.852;8.098;2022-09-09T04:01:14;13.00;99.90
9790;DHT22;4934;50.852;8.098;2022-09-09T04:03:41;13.00;99.90
9790;DHT22;4934;50.852;8.098;2022-09-09T04:06:09;13.10;99.90
9790;DHT22;4934;50.852;8.098;2022-09-09T04:08:36;13.10;99.90
9790;DHT22;4934;50.852;8.098;2022-09-09T04:11:04;13.20;99.90
9790;DHT22;4934;50.852;8.098;2022-09-09T04:13:36;13.30;99.90
9790;DHT22;4934;50.852;8.098;2022-09-09T04:16:03;13.30;99.90
9790;DHT22;4934;50.852;8.098;2022-09-09T04:18:29;13.40;99.90
9790;DHT22;4934;50.852;8.098;2022-09-09T04:20:55;13.50;99.90
9790;DHT22;4934;50.852;8.098;2022-09-09T04:23:24;13.50;99.90
9790;DHT22;4934;50.852;8.098;2022-09-09T04:25:52;13.60;99.90
9790;DHT22;4934;50.852;8.098;2022-09-09T04:28:19;13.60;99.90
9790;DHT22;4934;50.852;8.098;2022-09-09T04:30:46;13.60;99.90
9790;DHT22;4934;50.852;8.098;2022-09-09T04:33:13;13.70;99.90
9790;DHT22;4934;50.852;8.098;2022-09-09T04:35:38;13.70;99.90
9790;DHT22;4934;50.852;8.098;2022-09-09T04:38:05;13.70;99.90
9790;DHT22;4934;50.852;8.098;2022-09-09T04:40:33;13.70;99.90
9790;DHT22;4934;50.852;8.098;2022-09-09T04:43:01;13.70;99.90
9790;DHT22;4934;50.852;8.098;2022-09-09T04:45:28;13.70;99.90
9790;DHT22;4934;50.852;8.098;2022-09-09T04:47:54;13.70;99.90
9790;DHT22;4934;50.852;8.098;2022-09-09T04:50:20;13.70;99.90
9790;DHT22;4934;50.852;8.098;2022-09-09T04:52:46;13.70;99.90
9790;DHT22;4934;50.852;8.098;2022-09-09T04:55:12;13.70;99.90
9790;DHT22;4934;50.852;8.098;2022-09-09T04:57:39;13.70;99.90
9790;DHT22;4934;50.852;8.098;2022-09-09T05:00:05;13.70;99.90
9790;DHT22;4934;50.852;8.098;2022-09-09T05:02:31;13.80;99.90
9790;DHT22;4934;50.852;8.098;2022-09-09T05:04:57;13.80;99.90
9790;DHT22;4934;50.852;8.098;2022-09-09T05:07:24;13.90;99.90
9790;DHT22;4934;50.852;8.098;2022-09-09T05:09:51;13.90;99.90
9790;DHT22;4934;50.852;8.098;2022-09-09T05:12:17;13.90;99.90
9790;DHT22;4934;50.852;8.098;2022-09-09T05:14:43;13.90;99.90
9790;DHT22;4934;50.852;8.098;2022-09-09T05:17:09;13.90;99.90
9790;DHT22;4934;50.852;8.098;2022-09-09T05:19:35;14.00;99.90
9790;DHT22;4934;50.852;8.098;2022-09-09T05:22:00;14.00;99.90
9790;DHT22;4934;50.852;8.098;2022-09-09T05:24:29;14.00;99.90
9790;DHT22;4934;50.852;8.098;2022-09-09T05:26:58;14.10;99.90
9790;DHT22;4934;50.852;8.098;2022-09-09T05:29:25;14.10;99.90
9790;DHT22;4934;50.852;8.098;2022-09-09T05:31:51;14.20;99.90
9790;DHT22;4934;50.852;8.098;2022-09-09T05:34:17;14.20;99.90
9790;DHT22;4934;50.852;8.098;2022-09-09T05:36:43;14.20;99.90
9790;DHT22;4934;50.852;8.098;2022-09-09T05:39:08;14.30;99.90
9790;DHT22;4934;50.852;8.098;2022-09-09T05:41:34;14.40;99.90
9790;DHT22;4934;50.852;8.098;2022-09-09T05:44:01;14.40;99.90
9790;DHT22;4934;50.852;8.098;2022-09-09T05:46:27;14.40;99.90
9790;DHT22;4934;50.852;8.098;2022-09-09T05:48:53;14.40;99.90
9790;DHT22;4934;50.852;8.098;2022-09-09T05:51:21;14.40;99.90
9790;DHT22;4934;50.852;8.098;2022-09-09T05:53:48;14.40;99.90
9790;DHT22;4934;50.852;8.098;2022-09-09T05:56:18;14.40;99.90
9790;DHT22;4934;50.852;8.098;2022-09-09T05:58:45;14.50;99.90
9790;DHT22;4934;50.852;8.098;2022-09-09T06:01:24;14.60;99.90
9790;DHT22;4934;50.852;8.098;2022-09-09T06:03:50;14.70;99.90
9790;DHT22;4934;50.852;8.098;2022-09-09T06:06:19;14.90;99.90
9790;DHT22;4934;50.852;8.098;2022-09-09T06:08:51;15.00;99.90
9790;DHT22;4934;50.852;8.098;2022-09-09T06:11:19;15.20;99.90
9790;DHT22;4934;50.852;8.098;2022-09-09T06:13:45;15.30;99.90
9790;DHT22;4934;50.852;8.098;2022-09-09T06:16:16;15.30;99.90
9790;DHT22;4934;50.852;8.098;2022-09-09T06:18:42;15.30;99.90
9790;DHT22;4934;50.852;8.098;2022-09-09T06:21:21;15.30;99.90
9790;DHT22;4934;50.852;8.098;2022-09-09T06:23:47;15.30;99.90
9790;DHT22;4934;50.852;8.098;2022-09-09T06:26:15;15.40;99.90
9790;DHT22;4934;50.852;8.098;2022-09-09T06:28:44;15.40;99.90
9790;DHT22;4934;50.852;8.098;2022-09-09T06:31:12;15.30;99.90
9790;DHT22;4934;50.852;8.098;2022-09-09T06:33:40;15.50;99.90
9790;DHT22;4934;50.852;8.098;2022-09-09T06:36:12;15.60;99.90
9790;DHT22;4934;50.852;8.098;2022-09-09T06:38:38;15.70;99.90
9790;DHT22;4934;50.852;8.098;2022-09-09T06:41:04;15.80;99.90
9790;DHT22;4934;50.852;8.098;2022-09-09T06:43:31;15.90;99.90
9790;DHT22;4934;50.852;8.098;2022-09-09T06:46:08;16.10;99.90
9790;DHT22;4934;50.852;8.098;2022-09-09T06:48:35;16.20;99.90
9790;DHT22;4934;50.852;8.098;2022-09-09T06:51:06;16.40;99.90
9790;DHT22;4934;50.852;8.098;2022-09-09T06:53:36;16.40;99.90
9790;DHT22;4934;50.852;8.098;2022-09-09T06:58:49;16.60;99.90
9790;DHT22;4934;50.852;8.098;2022-09-09T07:01:17;16.70;99.90
9790;DHT22;4934;50.852;8.098;2022-09-09T07:03:49;16.80;99.90
9790;DHT22;4934;50.852;8.098;2022-09-09T07:06:20;16.80;99.90
9790;DHT22;4934;50.852;8.098;2022-09-09T07:08:56;16.70;99.90
9790;DHT22;4934;50.852;8.098;2022-09-09T07:11:28;16.70;99.90
9790;DHT22;4934;50.852;8.098;2022-09-09T07:13:54;16.80;99.90
9790;DHT22;4934;50.852;8.098;2022-09-09T07:16:21;16.80;99.90
9790;DHT22;4934;50.852;8.098;2022-09-09T07:18:51;17.00;99.90
9790;DHT22;4934;50.852;8.098;2022-09-09T07:21:17;17.00;99.90
9790;DHT22;4934;50.852;8.098;2022-09-09T07:23:43;17.10;99.90
9790;DHT22;4934;50.852;8.098;2022-09-09T07:26:14;17.20;99.90
9790;DHT22;4934;50.852;8.098;2022-09-09T07:28:41;17.20;99.90
9790;DHT22;4934;50.852;8.098;2022-09-09T07:33:39;17.40;99.90
9790;DHT22;4934;50.852;8.098;2022-09-09T07:36:15;17.40;99.90
9790;DHT22;4934;50.852;8.098;2022-09-09T07:38:43;17.40;99.90
9790;DHT22;4934;50.852;8.098;2022-09-09T07:41:13;17.50;99.90
9790;DHT22;4934;50.852;8.098;2022-09-09T07:43:40;17.30;99.90
9790;DHT22;4934;50.852;8.098;2022-09-09T07:46:06;17.40;99.90
9790;DHT22;4934;50.852;8.098;2022-09-09T07:48:32;17.50;99.90
9790;DHT22;4934;50.852;8.098;2022-09-09T07:51:16;17.70;99.90
9790;DHT22;4934;50.852;8.098;2022-09-09T07:53:43;17.70;99.90
9790;DHT22;4934;50.852;8.098;2022-09-09T07:56:11;17.80;99.90
9790;DHT22;4934;50.852;8.098;2022-09-09T07:58:38;18.00;99.90
9790;DHT22;4934;50.852;8.098;2022-09-09T08:01:15;18.10;99.90
9790;DHT22;4934;50.852;8.098;2022-09-09T08:03:47;18.30;99.90
9790;DHT22;4934;50.852;8.098;2022-09-09T08:06:13;18.40;99.90
9790;DHT22;4934;50.852;8.098;2022-09-09T08:08:39;18.50;99.90
9790;DHT22;4934;50.852;8.098;2022-09-09T08:11:14;18.50;99.90
9790;DHT22;4934;50.852;8.098;2022-09-09T08:13:41;18.50;99.90
9790;DHT22;4934;50.852;8.098;2022-09-09T08:16:16;18.50;99.90
9790;DHT22;4934;50.852;8.098;2022-09-09T08:18:42;18.50;99.90
9790;DHT22;4934;50.852;8.098;2022-09-09T08:21:11;18.50;99.90
9790;DHT22;4934;50.852;8.098;2022-09-09T08:23:41;18.50;99.90
9790;DHT22;4934;50.852;8.098;2022-09-09T08:26:11;18.50;99.90
9790;DHT22;4934;50.852;8.098;2022-09-09T08:28:38;18.50;99.90
9790;DHT22;4934;50.852;8.098;2022-09-09T08:31:16;18.60;99.90
9790;DHT22;4934;50.852;8.098;2022-09-09T08:33:43;18.80;99.90
9790;DHT22;4934;50.852;8.098;2022-09-09T08:36:17;18.90;99.90
9790;DHT22;4934;50.852;8.098;2022-09-09T08:38:43;18.90;99.90
9790;DHT22;4934;50.852;8.098;2022-09-09T08:43:46;19.10;99.90
9790;DHT22;4934;50.852;8.098;2022-09-09T08:46:27;19.20;99.90
9790;DHT22;4934;50.852;8.098;2022-09-09T08:49:49;19.30;99.90
9790;DHT22;4934;50.852;8.098;2022-09-09T08:51:54;19.50;99.90
9790;DHT22;4934;50.852;8.098;2022-09-09T08:54:21;19.50;99.90
9790;DHT22;4934;50.852;8.098;2022-09-09T08:56:47;19.40;99.90
9790;DHT22;4934;50.852;8.098;2022-09-09T08:59:16;19.50;99.90
9790;DHT22;4934;50.852;8.098;2022-09-09T09:04:58;19.30;99.90
9790;DHT22;4934;50.852;8.098;2022-09-09T09:10:51;19.50;99.90
9790;DHT22;4934;50.852;8.098;2022-09-09T09:13:25;19.40;99.90
9790;DHT22;4934;50.852;8.098;2022-09-09T09:15:58;19.40;99.90
9790;DHT22;4934;50.852;8.098;2022-09-09T09:18:26;19.50;99.90
9790;DHT22;4934;50.852;8.098;2022-09-09T09:21:16;19.60;99.90
9790;DHT22;4934;50.852;8.098;2022-09-09T09:23:59;19.60;99.90
9790;DHT22;4934;50.852;8.098;2022-09-09T09:26:34;19.70;99.90
9790;DHT22;4934;50.852;8.098;2022-09-09T09:29:23;19.80;99.90
9790;DHT22;4934;50.852;8.098;2022-09-09T09:31:59;19.50;99.90
9790;DHT22;4934;50.852;8.098;2022-09-09T09:34:27;19.40;99.90
9790;DHT22;4934;50.852;8.098;2022-09-09T09:36:58;19.40;99.90
9790;DHT22;4934;50.852;8.098;2022-09-09T09:39:38;19.40;99.90
9790;DHT22;4934;50.852;8.098;2022-09-09T09:42:13;19.50;99.90
9790;DHT22;4934;50.852;8.098;2022-09-09T09:44:40;19.50;99.90
9790;DHT22;4934;50.852;8.098;2022-09-09T09:47:14;19.50;99.90
9790;DHT22;4934;50.852;8.098;2022-09-09T09:49:55;19.50;99.90
9790;DHT22;4934;50.852;8.098;2022-09-09T09:52:26;19.40;99.90
9790;DHT22;4934;50.852;8.098;2022-09-09T09:54:53;19.50;99.90
9790;DHT22;4934;50.852;8.098;2022-09-09T09:57:24;19.60;99.90
9790;DHT22;4934;50.852;8.098;2022-09-09T10:02:37;19.80;99.90
9790;DHT22;4934;50.852;8.098;2022-09-09T10:05:19;20.10;99.90
9790;DHT22;4934;50.852;8.098;2022-09-09T10:07:45;20.30;99.90
9790;DHT22;4934;50.852;8.098;2022-09-09T10:10:34;20.40;99.90
9790;DHT22;4934;50.852;8.098;2022-09-09T10:13:18;20.40;99.90
9790;DHT22;4934;50.852;8.098;2022-09-09T10:19:00;20.40;99.90
9790;DHT22;4934;50.852;8.098;2022-09-09T10:24:07;20.60;99.90
9790;DHT22;4934;50.852;8.098;2022-09-09T10:29:53;20.80;99.90
9790;DHT22;4934;50.852;8.098;2022-09-09T10:32:39;20.60;99.90
9790;DHT22;4934;50.852;8.098;2022-09-09T10:40:43;20.90;99.90
9790;DHT22;4934;50.852;8.098;2022-09-09T10:48:50;21.00;99.90
9790;DHT22;4934;50.852;8.098;2022-09-09T10:56:41;21.50;99.90
9790;DHT22;4934;50.852;8.098;2022-09-09T10:59:24;21.50;99.90
9790;DHT22;4934;50.852;8.098;2022-09-09T11:02:05;21.40;99.90
9790;DHT22;4934;50.852;8.098;2022-09-09T11:04:49;21.10;99.90
9790;DHT22;4934;50.852;8.098;2022-09-09T11:07:24;21.20;99.90
9790;DHT22;4934;50.852;8.098;2022-09-09T11:09:56;21.30;99.90
9790;DHT22;4934;50.852;8.098;2022-09-09T11:12:27;21.20;99.90
9790;DHT22;4934;50.852;8.098;2022-09-09T11:15:01;21.20;99.90
9790;DHT22;4934;50.852;8.098;2022-09-09T11:17:36;21.00;99.90
9790;DHT22;4934;50.852;8.098;2022-09-09T11:20:06;20.70;99.90
9790;DHT22;4934;50.852;8.098;2022-09-09T11:28:17;21.40;99.90
9790;DHT22;4934;50.852;8.098;2022-09-09T11:42:21;21.80;99.90
9790;DHT22;4934;50.852;8.098;2022-09-09T11:44:51;21.80;99.90
9790;DHT22;4934;50.852;8.098;2022-09-09T11:47:24;21.80;99.90
9790;DHT22;4934;50.852;8.098;2022-09-09T11:49:55;21.60;99.90
9790;DHT22;4934;50.852;8.098;2022-09-09T11:52:35;21.70;99.90
9790;DHT22;4934;50.852;8.098;2022-09-09T11:55:10;21.90;99.90
9790;DHT22;4934;50.852;8.098;2022-09-09T11:57:38;22.10;99.90
9790;DHT22;4934;50.852;8.098;2022-09-09T12:00:05;22.30;99.90
9790;DHT22;4934;50.852;8.098;2022-09-09T12:02:31;22.50;99.90
9790;DHT22;4934;50.852;8.098;2022-09-09T12:07:41;22.70;99.90
9790;DHT22;4934;50.852;8.098;2022-09-09T12:10:38;22.70;99.90
9790;DHT22;4934;50.852;8.098;2022-09-09T12:13:24;22.80;99.90
9790;DHT22;4934;50.852;8.098;2022-09-09T12:15:53;23.20;99.90
9790;DHT22;4934;50.852;8.098;2022-09-09T12:18:36;23.30;99.90
9790;DHT22;4934;50.852;8.098;2022-09-09T12:21:40;23.40;99.90
9790;DHT22;4934;50.852;8.098;2022-09-09T12:24:11;23.70;99.90
9790;DHT22;4934;50.852;8.098;2022-09-09T12:27:02;23.90;99.90
9790;DHT22;4934;50.852;8.098;2022-09-09T12:29:41;23.70;99.90
9790;DHT22;4934;50.852;8.098;2022-09-09T12:32:23;23.40;99.90
9790;DHT22;4934;50.852;8.098;2022-09-09T12:34:55;23.40;99.90
9790;DHT22;4934;50.852;8.098;2022-09-09T12:37:38;23.30;99.90
9790;DHT22;4934;50.852;8.098;2022-09-09T12:40:28;23.60;99.90
9790;DHT22;4934;50.852;8.098;2022-09-09T12:42:54;23.70;99.90
9790;DHT22;4934;50.852;8.098;2022-09-09T12:45:31;23.80;99.90
9790;DHT22;4934;50.852;8.098;2022-09-09T12:48:04;23.80;99.90
9790;DHT22;4934;50.852;8.098;2022-09-09T12:50:37;23.80;99.90
9790;DHT22;4934;50.852;8.098;2022-09-09T12:53:13;23.80;99.90
9790;DHT22;4934;50.852;8.098;2022-09-09T12:55:50;23.70;99.90
9790;DHT22;4934;50.852;8.098;2022-09-09T12:58:17;23.70;99.90
9790;DHT22;4934;50.852;8.098;2022-09-09T13:00:52;23.80;99.90
9790;DHT22;4934;50.852;8.098;2022-09-09T13:03:20;23.80;99.90
9790;DHT22;4934;50.852;8.098;2022-09-09T13:05:46;23.90;99.90
9790;DHT22;4934;50.852;8.098;2022-09-09T13:08:14;23.70;99.90
9790;DHT22;4934;50.852;8.098;2022-09-09T13:11:03;23.50;99.90
9790;DHT22;4934;50.852;8.098;2022-09-09T13:13:35;23.50;99.90
9790;DHT22;4934;50.852;8.098;2022-09-09T13:16:03;23.60;99.90
9790;DHT22;4934;50.852;8.098;2022-09-09T13:18:33;23.60;99.90
9790;DHT22;4934;50.852;8.098;2022-09-09T13:21:01;23.70;99.90
9790;DHT22;4934;50.852;8.098;2022-09-09T13:23:32;23.60;99.90
9790;DHT22;4934;50.852;8.098;2022-09-09T13:26:05;23.50;99.90
9790;DHT22;4934;50.852;8.098;2022-09-09T13:28:33;23.20;99.90
9790;DHT22;4934;50.852;8.098;2022-09-09T13:31:05;23.00;99.90
9790;DHT22;4934;50.852;8.098;2022-09-09T13:33:36;22.90;99.90
9790;DHT22;4934;50.852;8.098;2022-09-09T13:36:08;22.80;99.90
9790;DHT22;4934;50.852;8.098;2022-09-09T13:38:55;22.90;99.90
9790;DHT22;4934;50.852;8.098;2022-09-09T13:41:25;23.10;99.90
9790;DHT22;4934;50.852;8.098;2022-09-09T13:43:54;23.20;99.90
9790;DHT22;4934;50.852;8.098;2022-09-09T13:46:37;23.10;99.90
9790;DHT22;4934;50.852;8.098;2022-09-09T13:51:43;23.20;99.90
9790;DHT22;4934;50.852;8.098;2022-09-09T13:54:15;23.20;99.90
9790;DHT22;4934;50.852;8.098;2022-09-09T13:56:42;23.30;99.90
9790;DHT22;4934;50.852;8.098;2022-09-09T13:59:16;23.20;99.90
9790;DHT22;4934;50.852;8.098;2022-09-09T14:01:43;23.10;99.90
9790;DHT22;4934;50.852;8.098;2022-09-09T14:04:09;22.80;99.90
9790;DHT22;4934;50.852;8.098;2022-09-09T14:06:36;22.60;99.90
9790;DHT22;4934;50.852;8.098;2022-09-09T14:09:04;22.70;99.90
9790;DHT22;4934;50.852;8.098;2022-09-09T14:11:30;22.90;99.90
9790;DHT22;4934;50.852;8.098;2022-09-09T14:13:55;23.00;99.90
9790;DHT22;4934;50.852;8.098;2022-09-09T14:16:21;22.80;99.90
9790;DHT22;4934;50.852;8.098;2022-09-09T14:18:47;22.40;99.90
9790;DHT22;4934;50.852;8.098;2022-09-09T14:21:13;22.20;99.90
9790;DHT22;4934;50.852;8.098;2022-09-09T14:23:40;22.00;99.90
9790;DHT22;4934;50.852;8.098;2022-09-09T14:26:06;21.70;99.90
9790;DHT22;4934;50.852;8.098;2022-09-09T14:28:32;21.60;99.90
9790;DHT22;4934;50.852;8.098;2022-09-09T14:31:03;21.50;99.90
9790;DHT22;4934;50.852;8.098;2022-09-09T14:33:30;21.50;99.90
9790;DHT22;4934;50.852;8.098;2022-09-09T14:36:00;21.60;99.90
9790;DHT22;4934;50.852;8.098;2022-09-09T14:38:29;21.40;99.90
9790;DHT22;4934;50.852;8.098;2022-09-09T14:40:55;21.60;99.90
9790;DHT22;4934;50.852;8.098;2022-09-09T14:43:21;21.80;99.90
9790;DHT22;4934;50.852;8.098;2022-09-09T14:45:47;21.70;99.90
9790;DHT22;4934;50.852;8.098;2022-09-09T14:48:14;21.80;99.90
9790;DHT22;4934;50.852;8.098;2022-09-09T14:50:41;21.80;99.90
9790;DHT22;4934;50.852;8.098;2022-09-09T14:53:07;21.60;99.90
9790;DHT22;4934;50.852;8.098;2022-09-09T14:55:34;21.50;99.90
9790;DHT22;4934;50.852;8.098;2022-09-09T14:58:00;21.30;99.90
9790;DHT22;4934;50.852;8.098;2022-09-09T15:00:25;21.30;99.90
9790;DHT22;4934;50.852;8.098;2022-09-09T15:02:54;21.10;99.90
9790;DHT22;4934;50.852;8.098;2022-09-09T15:05:20;20.90;99.90
9790;DHT22;4934;50.852;8.098;2022-09-09T15:07:46;20.00;99.90
9790;DHT22;4934;50.852;8.098;2022-09-09T15:10:14;19.70;99.90
9790;DHT22;4934;50.852;8.098;2022-09-09T15:12:39;19.50;99.90
9790;DHT22;4934;50.852;8.098;2022-09-09T15:15:07;19.20;99.90
9790;DHT22;4934;50.852;8.098;2022-09-09T15:17:33;19.00;99.90
9790;DHT22;4934;50.852;8.098;2022-09-09T15:19:59;19.00;99.90
9790;DHT22;4934;50.852;8.098;2022-09-09T15:22:25;18.80;99.90
9790;DHT22;4934;50.852;8.098;2022-09-09T15:24:51;19.00;99.90
9790;DHT22;4934;50.852;8.098;2022-09-09T15:27:17;19.00;99.90
9790;DHT22;4934;50.852;8.098;2022-09-09T15:29:43;18.80;99.90
9790;DHT22;4934;50.852;8.098;2022-09-09T15:32:09;18.80;99.90
9790;DHT22;4934;50.852;8.098;2022-09-09T15:34:35;18.90;99.90
9790;DHT22;4934;50.852;8.098;2022-09-09T15:37:01;18.90;99.90
9790;DHT22;4934;50.852;8.098;2022-09-09T15:39:26;18.90;99.90
9790;DHT22;4934;50.852;8.098;2022-09-09T15:41:52;19.10;99.90
9790;DHT22;4934;50.852;8.098;2022-09-09T15:44:17;19.10;99.90
9790;DHT22;4934;50.852;8.098;2022-09-09T15:46:45;19.10;99.90
9790;DHT22;4934;50.852;8.098;2022-09-09T15:49:18;18.90;99.90
9790;DHT22;4934;50.852;8.098;2022-09-09T15:51:46;18.80;99.90
9790;DHT22;4934;50.852;8.098;2022-09-09T15:54:17;18.80;99.90
9790;DHT22;4934;50.852;8.098;2022-09-09T15:56:44;18.80;99.90
9790;DHT22;4934;50.852;8.098;2022-09-09T15:59:10;18.80;99.90
9790;DHT22;4934;50.852;8.098;2022-09-09T16:01:37;18.80;99.90
9790;DHT22;4934;50.852;8.098;2022-09-09T16:04:04;19.00;99.90
9790;DHT22;4934;50.852;8.098;2022-09-09T16:06:30;19.00;99.90
9790;DHT22;4934;50.852;8.098;2022-09-09T16:08:58;18.90;99.90
9790;DHT22;4934;50.852;8.098;2022-09-09T16:11:29;18.90;99.90
9790;DHT22;4934;50.852;8.098;2022-09-09T16:13:54;18.90;99.90
9790;DHT22;4934;50.852;8.098;2022-09-09T16:16:22;18.90;99.90
9790;DHT22;4934;50.852;8.098;2022-09-09T16:18:57;18.70;99.90
9790;DHT22;4934;50.852;8.098;2022-09-09T16:21:26;18.50;99.90
9790;DHT22;4934;50.852;8.098;2022-09-09T16:23:55;18.40;99.90
9790;DHT22;4934;50.852;8.098;2022-09-09T16:26:21;18.20;99.90
9790;DHT22;4934;50.852;8.098;2022-09-09T16:28:48;18.00;99.90
9790;DHT22;4934;50.852;8.098;2022-09-09T16:31:16;17.90;99.90
9790;DHT22;4934;50.852;8.098;2022-09-09T16:33:42;17.90;99.90
9790;DHT22;4934;50.852;8.098;2022-09-09T16:36:10;17.80;99.90
9790;DHT22;4934;50.852;8.098;2022-09-09T16:38:36;17.80;99.90
9790;DHT22;4934;50.852;8.098;2022-09-09T16:41:03;17.70;99.90
9790;DHT22;4934;50.852;8.098;2022-09-09T16:43:30;17.60;99.90
9790;DHT22;4934;50.852;8.098;2022-09-09T16:45:56;17.60;99.90
9790;DHT22;4934;50.852;8.098;2022-09-09T16:48:21;17.50;99.90
9790;DHT22;4934;50.852;8.098;2022-09-09T16:50:47;17.30;99.90
9790;DHT22;4934;50.852;8.098;2022-09-09T16:53:13;17.20;99.90
9790;DHT22;4934;50.852;8.098;2022-09-09T16:55:40;17.20;99.90
9790;DHT22;4934;50.852;8.098;2022-09-09T16:58:07;17.10;99.90
9790;DHT22;4934;50.852;8.098;2022-09-09T17:00:34;17.10;99.90
9790;DHT22;4934;50.852;8.098;2022-09-09T17:03:00;17.10;99.90
9790;DHT22;4934;50.852;8.098;2022-09-09T17:05:25;17.00;99.90
9790;DHT22;4934;50.852;8.098;2022-09-09T17:07:51;17.00;99.90
9790;DHT22;4934;50.852;8.098;2022-09-09T17:10:17;16.80;99.90
9790;DHT22;4934;50.852;8.098;2022-09-09T17:12:43;16.80;99.90
9790;DHT22;4934;50.852;8.098;2022-09-09T17:15:09;16.70;99.90
9790;DHT22;4934;50.852;8.098;2022-09-09T17:17:35;16.60;99.90
9790;DHT22;4934;50.852;8.098;2022-09-09T17:20:01;16.50;99.90
9790;DHT22;4934;50.852;8.098;2022-09-09T17:22:28;16.50;99.90
9790;DHT22;4934;50.852;8.098;2022-09-09T17:24:54;16.30;99.90
9790;DHT22;4934;50.852;8.098;2022-09-09T17:27:20;16.40;99.90
9790;DHT22;4934;50.852;8.098;2022-09-09T17:29:45;16.30;99.90
9790;DHT22;4934;50.852;8.098;2022-09-09T17:32:12;16.30;99.90
9790;DHT22;4934;50.852;8.098;2022-09-09T17:34:37;16.20;99.90
9790;DHT22;4934;50.852;8.098;2022-09-09T17:37:03;16.20;99.90
9790;DHT22;4934;50.852;8.098;2022-09-09T17:39:30;16.10;99.90
9790;DHT22;4934;50.852;8.098;2022-09-09T17:41:56;16.10;99.90
9790;DHT22;4934;50.852;8.098;2022-09-09T17:44:21;16.00;99.90
9790;DHT22;4934;50.852;8.098;2022-09-09T17:46:47;15.90;99.90
9790;DHT22;4934;50.852;8.098;2022-09-09T17:49:16;15.80;99.90
9790;DHT22;4934;50.852;8.098;2022-09-09T17:51:43;15.80;99.90
9790;DHT22;4934;50.852;8.098;2022-09-09T17:54:12;15.70;99.90
9790;DHT22;4934;50.852;8.098;2022-09-09T17:56:38;15.60;99.90
9790;DHT22;4934;50.852;8.098;2022-09-09T17:59:07;15.50;99.90
9790;DHT22;4934;50.852;8.098;2022-09-09T18:01:33;15.40;99.90
9790;DHT22;4934;50.852;8.098;2022-09-09T18:04:02;15.40;99.90